createdAt,value
2017-11-13T00:02:12.021Z,99.90
2017-11-13T00:04:39.620Z,99.90
2017-11-13T00:07:07.539Z,99.90
2017-11-13T00:09:35.123Z,99.90
2017-11-13T00:12:03.481Z,99.90
2017-11-13T00:14:31.078Z,99.90
2017-11-13T00:16:59.422Z,99.90
2017-11-13T00:19:27.014Z,99.90
2017-11-13T00:21:55.350Z,99.90
2017-11-13T00:24:22.938Z,99.90
2017-11-13T00:26:51.282Z,99.90
2017-11-13T00:29:19.175Z,99.90
2017-11-13T00:31:46.739Z,99.90
2017-11-13T00:34:15.092Z,99.90
2017-11-13T00:36:42.798Z,99.90
2017-11-13T00:39:10.423Z,99.90
2017-11-13T00:41:38.035Z,99.90
2017-11-13T00:44:05.615Z,99.90
2017-11-13T00:46:33.704Z,99.90
2017-11-13T00:49:01.577Z,99.90
2017-11-13T00:51:29.179Z,99.90
2017-11-13T00:53:57.035Z,99.90
2017-11-13T00:56:24.623Z,99.90
2017-11-13T00:58:52.223Z,99.90
2017-11-13T01:01:19.806Z,99.90
2017-11-13T01:03:48.446Z,99.90
2017-11-13T01:06:16.128Z,99.90
2017-11-13T01:08:43.712Z,99.90
2017-11-13T01:11:13.158Z,99.90
2017-11-13T01:13:40.771Z,99.90
2017-11-13T01:16:09.126Z,99.90
2017-11-13T01:18:36.703Z,99.90
2017-11-13T01:21:05.236Z,99.90
2017-11-13T01:23:32.838Z,99.90
2017-11-13T01:26:00.420Z,99.90
2017-11-13T01:28:29.727Z,99.90
2017-11-13T01:30:57.529Z,99.90
2017-11-13T01:33:25.118Z,99.90
2017-11-13T01:35:52.703Z,99.90
2017-11-13T01:38:21.335Z,99.90
2017-11-13T01:40:48.989Z,99.90
2017-11-13T01:43:16.576Z,99.90
2017-11-13T01:45:44.181Z,99.90
2017-11-13T01:48:11.762Z,99.90
2017-11-13T01:50:40.574Z,99.90
2017-11-13T01:53:08.566Z,99.90
2017-11-13T01:55:36.922Z,99.90
2017-11-13T01:58:04.535Z,99.90
2017-11-13T02:00:32.156Z,99.90
2017-11-13T02:03:00.695Z,99.90
2017-11-13T02:05:28.257Z,99.90
2017-11-13T02:07:55.853Z,99.90
2017-11-13T02:10:23.443Z,99.90
2017-11-13T02:12:52.164Z,99.90
2017-11-13T02:15:19.767Z,99.90
2017-11-13T02:17:47.403Z,99.90
2017-11-13T02:20:15.002Z,99.90
2017-11-13T02:22:42.583Z,99.90
2017-11-13T02:25:10.199Z,99.90
2017-11-13T02:27:37.746Z,99.90
2017-11-13T02:30:05.408Z,99.90
2017-11-13T02:32:32.994Z,99.90
2017-11-13T02:35:00.598Z,99.90
2017-11-13T02:37:28.212Z,99.90
2017-11-13T02:39:55.761Z,99.90
2017-11-13T02:42:23.354Z,99.90
2017-11-13T02:44:50.903Z,99.90
2017-11-13T02:47:19.268Z,99.90
2017-11-13T02:49:47.616Z,99.90
2017-11-13T02:52:15.180Z,99.90
2017-11-13T02:54:42.784Z,99.90
2017-11-13T02:57:10.391Z,99.90
2017-11-13T02:59:38.002Z,99.90
2017-11-13T03:02:06.344Z,99.90
2017-11-13T03:04:33.930Z,99.90
2017-11-13T03:07:02.296Z,99.90
2017-11-13T03:09:29.883Z,99.90
2017-11-13T03:11:58.234Z,99.90
2017-11-13T03:14:25.816Z,99.90
2017-11-13T03:16:54.442Z,99.90
2017-11-13T03:19:22.019Z,99.90
2017-11-13T03:21:49.587Z,99.90
2017-11-13T03:24:17.187Z,99.90
2017-11-13T03:26:44.764Z,99.90
2017-11-13T03:29:12.671Z,99.90
2017-11-13T03:31:41.040Z,99.90
2017-11-13T03:34:09.002Z,99.90
2017-11-13T03:36:36.586Z,99.90
2017-11-13T03:39:04.186Z,99.90
2017-11-13T03:41:31.798Z,99.90
2017-11-13T03:43:59.368Z,99.90
2017-11-13T03:46:28.632Z,99.90
2017-11-13T03:48:56.760Z,99.90
2017-11-13T03:51:24.776Z,99.90
2017-11-13T03:53:52.363Z,99.90
2017-11-13T03:56:19.936Z,99.90
2017-11-13T03:58:47.576Z,99.90
2017-11-13T04:01:15.147Z,99.90
2017-11-13T04:03:44.207Z,99.90
2017-11-13T04:06:11.770Z,99.90
2017-11-13T04:08:39.737Z,99.90
2017-11-13T04:11:07.366Z,99.90
2017-11-13T04:13:34.952Z,99.90
2017-11-13T04:16:02.576Z,99.90
2017-11-13T04:18:30.183Z,99.90
2017-11-13T04:20:58.334Z,99.90
2017-11-13T04:23:25.911Z,99.90
2017-11-13T04:25:53.771Z,99.90
2017-11-13T04:28:21.610Z,99.90
2017-11-13T04:30:49.179Z,99.90
2017-11-13T04:33:16.779Z,99.90
2017-11-13T04:35:44.422Z,99.90
2017-11-13T04:38:12.160Z,99.90
2017-11-13T04:40:39.762Z,99.90
2017-11-13T04:43:07.707Z,99.90
2017-11-13T04:45:35.319Z,99.90
2017-11-13T04:48:03.735Z,99.90
2017-11-13T04:50:31.359Z,99.90
2017-11-13T04:52:59.715Z,99.90
2017-11-13T04:55:27.656Z,99.90
2017-11-13T04:57:55.335Z,99.90
2017-11-13T05:00:23.208Z,99.90
2017-11-13T05:02:50.790Z,99.90
2017-11-13T05:05:19.127Z,99.90
2017-11-13T05:07:46.747Z,99.90
2017-11-13T05:10:14.313Z,99.90
2017-11-13T05:12:41.905Z,99.90
2017-11-13T05:15:09.491Z,99.90
2017-11-13T05:17:37.467Z,99.90
2017-11-13T05:20:05.052Z,99.90
2017-11-13T05:22:32.655Z,99.90
2017-11-13T05:25:00.261Z,99.90
2017-11-13T05:27:27.900Z,99.90
2017-11-13T05:29:55.485Z,99.90
2017-11-13T05:32:23.060Z,99.90
2017-11-13T05:34:50.990Z,99.90
2017-11-13T05:37:18.569Z,99.90
2017-11-13T05:39:46.910Z,99.90
2017-11-13T05:42:14.506Z,99.90
2017-11-13T05:44:42.864Z,99.90
2017-11-13T05:47:11.344Z,99.90
2017-11-13T05:49:38.924Z,99.90
2017-11-13T05:52:07.555Z,99.90
2017-11-13T05:54:35.908Z,99.90
2017-11-13T05:57:03.475Z,99.90
2017-11-13T05:59:31.085Z,99.90
2017-11-13T06:01:58.671Z,99.90
2017-11-13T06:04:26.276Z,99.90
2017-11-13T06:06:53.924Z,99.90
2017-11-13T06:09:21.805Z,99.90
2017-11-13T06:11:49.392Z,99.90
2017-11-13T06:14:17.079Z,99.90
2017-11-13T06:16:44.900Z,99.90
2017-11-13T06:19:12.557Z,99.90
2017-11-13T06:21:40.174Z,99.90
2017-11-13T06:24:07.818Z,99.90
2017-11-13T06:26:36.537Z,99.90
2017-11-13T06:29:05.144Z,99.90
2017-11-13T06:31:32.727Z,99.90
2017-11-13T06:34:00.374Z,99.90
2017-11-13T06:36:27.971Z,99.90
2017-11-13T06:38:56.410Z,99.90
2017-11-13T06:41:24.000Z,99.90
2017-11-13T06:43:52.368Z,99.90
2017-11-13T06:46:20.737Z,99.90
2017-11-13T06:48:48.765Z,99.90
2017-11-13T06:51:16.368Z,99.90
2017-11-13T06:53:43.951Z,99.90
2017-11-13T06:56:11.679Z,99.90
2017-11-13T06:58:39.281Z,99.90
2017-11-13T07:01:07.657Z,99.90
2017-11-13T07:03:35.983Z,99.90
2017-11-13T07:06:04.670Z,99.90
2017-11-13T07:08:32.329Z,99.90
2017-11-13T07:11:00.683Z,99.90
2017-11-13T07:13:28.677Z,99.90
2017-11-13T07:15:56.271Z,99.90
2017-11-13T07:18:24.623Z,99.90
2017-11-13T07:20:52.269Z,99.90
2017-11-13T07:23:20.155Z,99.90
2017-11-13T07:25:47.733Z,99.90
2017-11-13T07:28:15.336Z,99.90
2017-11-13T07:30:42.949Z,99.90
2017-11-13T07:33:10.546Z,99.90
2017-11-13T07:35:38.164Z,99.90
2017-11-13T07:38:08.199Z,99.90
2017-11-13T07:40:36.808Z,99.90
2017-11-13T07:43:04.712Z,99.90
2017-11-13T07:45:32.298Z,99.90
2017-11-13T07:47:59.891Z,99.90
2017-11-13T07:50:27.485Z,99.90
2017-11-13T07:52:55.083Z,99.90
2017-11-13T07:55:22.706Z,99.90
2017-11-13T07:57:51.405Z,99.90
2017-11-13T08:00:19.074Z,99.90
2017-11-13T08:02:46.930Z,99.90
2017-11-13T08:05:14.539Z,99.90
2017-11-13T08:07:42.116Z,99.90
2017-11-13T08:10:09.724Z,99.90
2017-11-13T08:12:37.328Z,99.90
2017-11-13T08:15:05.253Z,99.90
2017-11-13T08:17:32.858Z,99.90
2017-11-13T08:20:00.496Z,99.90
2017-11-13T08:22:28.883Z,99.90
2017-11-13T08:24:56.494Z,99.90
2017-11-13T08:27:24.384Z,99.90
2017-11-13T08:29:52.908Z,99.90
2017-11-13T08:32:20.838Z,99.90
2017-11-13T08:34:49.224Z,99.90
2017-11-13T08:37:16.789Z,99.90
2017-11-13T08:39:45.140Z,99.90
2017-11-13T08:42:12.743Z,99.90
2017-11-13T08:44:40.780Z,99.90
2017-11-13T08:47:09.137Z,99.90
2017-11-13T08:49:36.981Z,99.90
2017-11-13T08:52:04.635Z,99.90
2017-11-13T08:54:32.222Z,99.90
2017-11-13T08:57:00.131Z,99.90
2017-11-13T08:59:28.468Z,99.90
2017-11-13T09:01:56.174Z,99.90
2017-11-13T09:04:23.815Z,99.90
2017-11-13T09:06:51.743Z,99.90
2017-11-13T09:09:19.459Z,99.90
2017-11-13T09:11:47.811Z,99.90
2017-11-13T09:14:15.420Z,99.90
2017-11-13T09:16:43.026Z,99.90
2017-11-13T09:19:10.875Z,99.90
2017-11-13T09:21:38.453Z,99.90
2017-11-13T09:24:06.405Z,99.90
2017-11-13T09:26:34.047Z,99.90
2017-11-13T09:29:01.685Z,99.90
2017-11-13T09:31:30.186Z,99.90
2017-11-13T09:33:57.786Z,99.90
2017-11-13T09:36:25.385Z,99.90
2017-11-13T09:38:53.234Z,99.90
2017-11-13T09:41:21.997Z,99.90
2017-11-13T09:43:49.579Z,99.90
2017-11-13T09:46:17.923Z,99.90
2017-11-13T09:48:45.532Z,99.90
2017-11-13T09:51:13.113Z,99.90
2017-11-13T09:53:41.494Z,99.90
2017-11-13T09:56:09.111Z,99.90
2017-11-13T09:58:37.882Z,71.60
2017-11-13T10:01:05.519Z,71.00
2017-11-13T10:03:33.100Z,73.10
2017-11-13T10:06:00.699Z,69.90
2017-11-13T10:08:28.326Z,75.20
2017-11-13T10:10:56.359Z,88.30
2017-11-13T10:13:23.953Z,88.20
2017-11-13T10:15:51.543Z,91.00
2017-11-13T10:18:19.928Z,93.50
2017-11-13T10:20:47.623Z,93.40
2017-11-13T10:23:15.222Z,94.80
2017-11-13T10:25:42.825Z,95.90
2017-11-13T10:28:10.821Z,97.30
2017-11-13T10:30:39.069Z,98.70
2017-11-13T10:33:06.663Z,99.80
2017-11-13T10:35:34.256Z,99.70
2017-11-13T10:38:02.584Z,99.90
2017-11-13T10:40:30.235Z,99.90
2017-11-13T10:42:57.802Z,99.90
2017-11-13T10:45:25.694Z,99.90
2017-11-13T10:47:53.283Z,99.90
2017-11-13T10:50:20.964Z,99.90
2017-11-13T10:52:48.565Z,99.90
2017-11-13T10:55:16.165Z,99.60
2017-11-13T10:57:44.907Z,91.60
2017-11-13T11:00:12.673Z,91.40
2017-11-13T11:02:40.268Z,80.90
2017-11-13T11:05:08.619Z,87.30
2017-11-13T11:07:36.164Z,87.30
2017-11-13T11:10:04.017Z,85.70
2017-11-13T11:12:31.576Z,83.00
2017-11-13T11:18:11.144Z,86.00
2017-11-13T11:23:41.040Z,91.80
2017-11-13T11:26:24.276Z,93.10
2017-11-13T11:28:51.936Z,93.20
2017-11-13T11:31:34.800Z,94.00
2017-11-13T11:34:22.279Z,95.60
2017-11-13T11:40:03.483Z,99.90
2017-11-13T11:42:31.118Z,99.90
2017-11-13T11:45:13.176Z,99.90
2017-11-13T11:47:50.927Z,99.90
2017-11-13T11:50:19.899Z,99.90
2017-11-13T11:52:48.352Z,99.90
2017-11-13T11:55:15.997Z,99.90
2017-11-13T11:57:43.580Z,99.90
2017-11-13T12:00:11.700Z,99.90
2017-11-13T12:02:39.268Z,99.90
2017-11-13T12:05:07.106Z,99.90
2017-11-13T12:07:35.459Z,99.90
2017-11-13T12:10:03.084Z,99.90
2017-11-13T12:12:30.700Z,99.90
2017-11-13T12:14:59.034Z,95.50
2017-11-13T12:17:26.633Z,95.50
2017-11-13T12:19:54.379Z,94.50
2017-11-13T12:22:22.336Z,95.20
2017-11-13T12:24:49.941Z,96.20
2017-11-13T12:27:17.559Z,97.60
2017-11-13T12:29:45.240Z,98.90
2017-11-13T12:32:13.630Z,96.00
2017-11-13T12:34:42.022Z,95.10
2017-11-13T12:37:10.405Z,93.00
2017-11-13T12:39:38.319Z,92.80
2017-11-13T12:42:06.027Z,90.10
2017-11-13T12:44:33.671Z,86.50
2017-11-13T12:47:01.301Z,79.60
2017-11-13T12:49:28.892Z,83.80
2017-11-13T12:51:57.345Z,80.30
2017-11-13T12:54:26.500Z,79.70
2017-11-13T12:56:54.381Z,84.10
2017-11-13T12:59:22.707Z,64.80
2017-11-13T13:01:50.490Z,64.80
2017-11-13T13:04:18.994Z,57.40
2017-11-13T13:06:46.598Z,57.50
2017-11-13T13:09:14.211Z,54.20
2017-11-13T13:11:41.882Z,55.10
2017-11-13T13:14:10.112Z,53.10
2017-11-13T13:16:37.683Z,58.40
2017-11-13T13:19:06.023Z,86.80
2017-11-13T13:21:33.639Z,86.90
2017-11-13T13:24:01.227Z,89.20
2017-11-13T13:26:28.830Z,90.80
2017-11-13T13:28:57.184Z,93.80
2017-11-13T13:31:25.256Z,93.80
2017-11-13T13:33:52.856Z,92.60
2017-11-13T13:36:21.216Z,87.30
2017-11-13T13:38:48.820Z,87.10
2017-11-13T13:41:16.628Z,84.00
2017-11-13T13:43:44.239Z,82.70
2017-11-13T13:46:11.822Z,84.30
2017-11-13T13:48:40.929Z,78.10
2017-11-13T13:51:08.529Z,71.00
2017-11-13T13:53:36.111Z,70.90
2017-11-13T13:56:03.730Z,72.60
2017-11-13T13:58:31.335Z,69.80
2017-11-13T14:00:59.290Z,75.60
2017-11-13T14:03:26.866Z,64.70
2017-11-13T14:05:54.451Z,73.00
2017-11-13T14:08:22.056Z,69.60
2017-11-13T14:10:52.625Z,66.00
2017-11-13T14:13:20.431Z,66.10
2017-11-13T14:15:48.060Z,68.60
2017-11-13T14:18:15.961Z,71.50
2017-11-13T14:20:43.755Z,69.60
2017-11-13T14:23:11.346Z,72.80
2017-11-13T14:25:38.942Z,67.90
2017-11-13T14:28:06.568Z,75.80
2017-11-13T14:30:34.257Z,74.60
2017-11-13T14:33:01.863Z,74.20
2017-11-13T14:35:29.764Z,83.60
2017-11-13T14:37:57.388Z,81.10
2017-11-13T14:40:24.998Z,85.10
2017-11-13T14:42:53.413Z,90.00
2017-11-13T14:45:21.772Z,92.10
2017-11-13T14:47:49.374Z,92.00
2017-11-13T14:50:17.057Z,91.90
2017-11-13T14:52:44.940Z,93.10
2017-11-13T14:55:12.519Z,93.30
2017-11-13T14:57:40.109Z,93.10
2017-11-13T15:00:08.031Z,94.70
2017-11-13T15:02:35.623Z,95.40
2017-11-13T15:05:03.981Z,96.40
2017-11-13T15:07:31.599Z,96.50
2017-11-13T15:09:59.491Z,96.90
2017-11-13T15:12:27.590Z,99.80
2017-11-13T15:14:55.940Z,99.50
2017-11-13T15:17:23.586Z,99.50
2017-11-13T15:19:51.401Z,98.70
2017-11-13T15:22:19.771Z,99.90
2017-11-13T15:24:48.155Z,99.90
2017-11-13T15:27:16.863Z,99.90
2017-11-13T15:29:44.571Z,99.90
2017-11-13T15:32:12.211Z,99.90
2017-11-13T15:34:39.877Z,99.90
2017-11-13T15:37:07.485Z,99.90
2017-11-13T15:39:36.158Z,99.90
2017-11-13T15:42:03.751Z,99.90
2017-11-13T15:44:31.351Z,99.90
2017-11-13T15:46:58.956Z,99.90
2017-11-13T15:49:26.652Z,99.90
2017-11-13T15:51:54.255Z,99.90
2017-11-13T15:54:21.887Z,99.90
2017-11-13T15:56:50.071Z,99.90
2017-11-13T15:59:18.065Z,99.90
2017-11-13T16:01:45.646Z,99.90
2017-11-13T16:04:13.377Z,99.90
2017-11-13T16:06:41.784Z,99.90
2017-11-13T16:09:10.512Z,99.90
2017-11-13T16:11:38.152Z,99.90
2017-11-13T16:14:06.108Z,99.90
2017-11-13T16:16:33.756Z,99.90
2017-11-13T16:19:01.475Z,99.90
2017-11-13T16:21:29.099Z,99.90
2017-11-13T16:23:56.688Z,99.90
2017-11-13T16:26:24.599Z,99.90
2017-11-13T16:28:52.984Z,99.90
2017-11-13T16:31:20.560Z,99.90
2017-11-13T16:33:48.160Z,99.90
2017-11-13T16:36:15.879Z,99.90
2017-11-13T16:38:43.793Z,99.90
2017-11-13T16:41:11.424Z,99.90
2017-11-13T16:43:39.025Z,99.90
2017-11-13T16:46:06.666Z,99.90
2017-11-13T16:48:34.281Z,99.90
2017-11-13T16:51:01.884Z,99.90
2017-11-13T16:53:29.698Z,99.90
2017-11-13T16:55:57.936Z,99.90
2017-11-13T16:58:25.727Z,99.90
2017-11-13T17:00:53.413Z,99.90
2017-11-13T17:03:21.059Z,99.90
2017-11-13T17:05:49.474Z,99.90
2017-11-13T17:08:17.376Z,99.90
2017-11-13T17:10:44.964Z,99.90
2017-11-13T17:13:13.354Z,99.90
2017-11-13T17:15:42.507Z,99.90
2017-11-13T17:18:10.145Z,99.90
2017-11-13T17:20:37.750Z,99.90
2017-11-13T17:23:06.148Z,99.90
2017-11-13T17:25:33.751Z,99.90
2017-11-13T17:28:01.374Z,99.90
2017-11-13T17:30:28.927Z,99.90
2017-11-13T17:32:56.950Z,99.90
2017-11-13T17:35:24.532Z,99.90
2017-11-13T17:37:52.106Z,99.90
2017-11-13T17:40:19.734Z,99.90
2017-11-13T17:42:47.368Z,99.90
2017-11-13T17:45:14.962Z,99.90
2017-11-13T17:47:42.643Z,99.90
2017-11-13T17:50:11.001Z,99.90
2017-11-13T17:52:38.768Z,99.90
2017-11-13T17:55:06.393Z,99.90
2017-11-13T17:57:34.088Z,99.90
2017-11-13T18:00:01.685Z,99.90
2017-11-13T18:02:29.283Z,99.90
2017-11-13T18:04:56.940Z,99.90
2017-11-13T18:07:24.603Z,99.90
2017-11-13T18:09:52.704Z,99.90
2017-11-13T18:12:20.329Z,99.90
2017-11-13T18:14:47.915Z,99.90
2017-11-13T18:17:15.517Z,99.90
2017-11-13T18:19:43.178Z,99.90
2017-11-13T18:22:11.105Z,99.90
2017-11-13T18:24:38.684Z,99.90
2017-11-13T18:27:07.073Z,99.90
2017-11-13T18:29:35.464Z,99.90
2017-11-13T18:32:03.426Z,99.90
2017-11-13T18:34:31.261Z,99.90
2017-11-13T18:36:59.656Z,99.90
2017-11-13T18:39:28.012Z,99.90
2017-11-13T18:41:55.689Z,99.90
2017-11-13T18:44:23.279Z,99.90
2017-11-13T18:46:51.198Z,99.90
2017-11-13T18:49:18.798Z,99.90
2017-11-13T18:51:46.412Z,99.90
2017-11-13T18:54:14.046Z,99.90
2017-11-13T18:56:41.666Z,99.90
2017-11-13T18:59:09.365Z,99.90
2017-11-13T19:01:37.408Z,99.90
2017-11-13T19:04:05.414Z,99.90
2017-11-13T19:06:33.120Z,99.90
2017-11-13T19:09:00.796Z,99.90
2017-11-13T19:11:29.273Z,99.90
2017-11-13T19:13:56.988Z,99.90
2017-11-13T19:16:25.458Z,99.90
2017-11-13T19:18:53.058Z,99.90
2017-11-13T19:21:20.912Z,99.90
2017-11-13T19:23:48.554Z,99.90
2017-11-13T19:26:16.180Z,99.90
2017-11-13T19:28:43.918Z,99.90
2017-11-13T19:31:12.319Z,99.90
2017-11-13T19:33:40.000Z,99.90
2017-11-13T19:36:07.687Z,99.90
2017-11-13T19:38:35.608Z,99.90
2017-11-13T19:41:04.158Z,99.90
2017-11-13T19:43:31.861Z,99.90
2017-11-13T19:45:59.543Z,99.90
2017-11-13T19:48:27.208Z,99.90
2017-11-13T19:50:54.889Z,99.90
2017-11-13T19:53:22.500Z,99.90
2017-11-13T19:55:50.625Z,99.90
2017-11-13T19:58:18.242Z,99.90
2017-11-13T20:00:45.873Z,99.90
2017-11-13T20:03:13.505Z,99.90
2017-11-13T20:05:41.150Z,99.90
2017-11-13T20:08:09.370Z,99.90
2017-11-13T20:10:37.771Z,99.90
2017-11-13T20:13:05.866Z,99.90
2017-11-13T20:15:33.499Z,99.90
2017-11-13T20:18:01.869Z,99.90
2017-11-13T20:20:29.547Z,99.90
2017-11-13T20:22:57.156Z,99.90
2017-11-13T20:25:24.946Z,99.90
2017-11-13T20:27:53.339Z,99.90
2017-11-13T20:30:21.367Z,99.90
2017-11-13T20:32:49.038Z,99.90
2017-11-13T20:35:16.879Z,99.90
2017-11-13T20:37:44.512Z,99.90
2017-11-13T20:40:12.156Z,99.90
2017-11-13T20:42:40.939Z,99.90
2017-11-13T20:45:09.982Z,99.90
2017-11-13T20:47:38.062Z,99.90
2017-11-13T20:50:05.685Z,99.90
2017-11-13T20:52:33.463Z,99.90
2017-11-13T20:55:01.117Z,99.90
2017-11-13T20:57:28.752Z,99.90
2017-11-13T20:59:57.303Z,99.90
2017-11-13T21:02:29.809Z,99.90
2017-11-13T21:04:57.463Z,99.90
2017-11-13T21:07:25.772Z,99.90
2017-11-13T21:09:53.384Z,99.90
2017-11-13T21:12:21.021Z,99.90
2017-11-13T21:14:48.642Z,99.90
2017-11-13T21:17:18.371Z,99.90
2017-11-13T21:19:48.521Z,99.90
2017-11-13T21:22:16.521Z,99.90
2017-11-13T21:24:45.129Z,99.90
2017-11-13T21:27:12.893Z,99.90
2017-11-13T21:29:40.574Z,99.90
2017-11-13T21:32:08.206Z,99.90
2017-11-13T21:34:35.891Z,99.90
2017-11-13T21:37:03.495Z,99.90
2017-11-13T21:39:31.356Z,99.90
2017-11-13T21:41:59.015Z,99.90
2017-11-13T21:44:26.750Z,99.90
2017-11-13T21:46:54.367Z,99.90
2017-11-13T21:49:23.513Z,99.90
2017-11-13T21:51:51.855Z,99.90
2017-11-13T21:54:19.441Z,99.90
2017-11-13T21:56:47.348Z,99.90
2017-11-13T21:59:15.961Z,99.90
2017-11-13T22:01:43.683Z,99.90
2017-11-13T22:04:11.317Z,99.90
2017-11-13T22:06:38.967Z,99.90
2017-11-13T22:09:06.914Z,99.90
2017-11-13T22:11:34.549Z,99.90
2017-11-13T22:14:02.166Z,99.90
2017-11-13T22:16:29.875Z,99.90
2017-11-13T22:18:58.334Z,99.90
2017-11-13T22:21:27.006Z,99.90
2017-11-13T22:23:54.710Z,99.90
2017-11-13T22:26:23.466Z,99.90
2017-11-13T22:28:51.052Z,99.90
2017-11-13T22:31:18.663Z,99.90
2017-11-13T22:33:46.287Z,99.90
2017-11-13T22:36:13.890Z,99.90
2017-11-13T22:38:48.359Z,99.90
2017-11-13T22:41:16.732Z,99.90
2017-11-13T22:43:45.394Z,99.90
2017-11-13T22:46:13.033Z,99.90
2017-11-13T22:48:40.623Z,99.90
2017-11-13T22:51:08.258Z,99.90
2017-11-13T22:53:35.851Z,99.90
2017-11-13T22:56:03.468Z,99.90
2017-11-13T22:58:31.063Z,99.90
2017-11-13T23:00:58.917Z,99.90
2017-11-13T23:03:26.513Z,99.90
2017-11-13T23:05:54.869Z,99.90
2017-11-13T23:08:22.488Z,99.90
2017-11-13T23:10:50.092Z,99.90
2017-11-13T23:13:17.719Z,99.90
2017-11-13T23:15:45.329Z,99.90
2017-11-13T23:18:14.088Z,99.90
2017-11-13T23:20:41.682Z,99.90
2017-11-13T23:23:10.146Z,99.90
2017-11-13T23:25:37.770Z,99.90
2017-11-13T23:28:05.352Z,99.90
2017-11-13T23:30:33.842Z,99.90
2017-11-13T23:33:01.454Z,99.90
2017-11-13T23:35:29.482Z,99.90
2017-11-13T23:37:57.128Z,99.90
2017-11-13T23:40:24.744Z,99.90
2017-11-13T23:42:52.345Z,99.90
2017-11-13T23:45:19.966Z,99.90
2017-11-13T23:47:47.584Z,99.90
2017-11-13T23:50:15.216Z,99.90
2017-11-13T23:52:43.298Z,99.90
2017-11-13T23:55:11.134Z,99.90
2017-11-13T23:57:38.710Z,99.90
